ADDS METAR Data INFO
IDs: Format: Raw Decoded Include TAF

Data at: 2248 UTC 16 Jan 2018

PFEL 162156Z AUTO 34007KT 10SM CLR 00/M02 A2952 RMK AO2 SLP996 T00001022 FZRANO
PFEL 162056Z AUTO 33006KT 10SM CLR M01/M02 A2953 RMK AO2 SLP999 T10061022 58001 FZRANO
PFEL 161956Z AUTO 34005KT 10SM SCT060 M01/M02 A2953 RMK AO2 SLP001 T10111022 FZRANO
PFEL 161856Z AUTO 35005KT 10SM FEW026 OVC060 00/M03 A2953 RMK AO2 SLP001 T00001028 FZRANO
PFEL 161756Z AUTO 01003KT 10SM FEW027 OVC060 00/M02 A2953 RMK AO2 SLP000 60000 T00001022 10006 21006 58004 FZRANO
PFEL 161746Z AUTO 33004KT 10SM SCT026 OVC065 00/M02 A2953 RMK AO2 FZRANO
PFEL 161656Z AUTO 33004KT 10SM BKN028 OVC065 M01/M02 A2953 RMK AO2 SLP002 T10061022 FZRANO
PFEL 161652Z AUTO 35004KT 10SM BKN028 OVC065 M01/M02 A2953 RMK AO2 FZRANO
PFEL 161556Z AUTO 00000KT 10SM SCT028 OVC040 00/M03 A2954 RMK AO2 UPB40E52 SLP004 P0000 T00001028 FZRANO
PFEL 161526Z AUTO 00000KT 10SM BKN028 OVC037 00/M02 A2954 RMK AO2 FZRANO
PFEL 161456Z AUTO 00000KT 10SM SCT026 OVC037 00/M02 A2953 RMK AO2 SLP002 T00001022 50000 FZRANO
PFEL 161356Z AUTO 00000KT 10SM OVC024 00/M03 A2954 RMK AO2 SLP004 T00001028 FZRANO
PFEL 161256Z AUTO 25004KT 10SM OVC024 01/M02 A2954 RMK AO2 SLP003 T00061022 FZRANO
PFEL 161156Z AUTO 27004KT 10SM OVC024 01/M02 A2953 RMK AO2 SLP002 T00061022 10006 21011 52010 FZRANO
PFEL 161112Z AUTO VRB03KT 10SM SCT013 OVC024 00/M02 A2953 RMK AO2 FZRANO
PFEL 161056Z AUTO 23004KT 10SM BKN013 OVC026 00/M02 A2953 RMK AO2 SLP999 T00001022 FZRANO
PFEL 161031Z AUTO VRB03KT 10SM FEW013 BKN026 OVC065 00/M02 A2952 RMK AO2 FZRANO
PFEL 160956Z AUTO 19006KT 10SM FEW028 OVC070 00/M02 A2951 RMK AO2 SLP994 T00001022 FZRANO
PFEL 160856Z AUTO 19015G21KT 10SM FEW010 OVC070 M01/M02 A2950 RMK AO2 SLP991 T10061017 400221011 51018 FZRANO
PFEL 160756Z AUTO 19006KT 10SM FEW037 OVC065 M01/M02 A2949 RMK AO2 SLP989 T10061022 FZRANO
PFEL 160656Z AUTO 18010KT 10SM SCT032 OVC065 M01/M02 A2947 RMK AO2 SLP980 T10061017 FZRANO
PFEL 160556Z AUTO 17010KT 10SM OVC060 M01/M02 A2945 RMK AO2 SLP973 60000 T10061017 10000 21006 53021 FZRANO
PFEL 160542Z AUTO 17010KT 10SM SCT027 OVC060 00/M02 A2944 RMK AO2 FZRANO
PFEL 160456Z AUTO 17011KT 10SM BKN029 BKN035 OVC055 00/M02 A2942 RMK AO2 SLP964 T00001017 FZRANO
PFEL 160416Z AUTO 17011KT 10SM BKN027 OVC055 M01/M02 A2941 RMK AO2 FZRANO
PFEL 160356Z AUTO 17010KT 10SM FEW018 OVC030 M01/M02 A2940 RMK AO2 UPB04E35SNE04B07E22 SLP956 P0000 T10061017 FZRANO
PFEL 160332Z AUTO 17011KT 10SM UP OVC016 M01/M01 A2940 RMK AO2 UPB04SNE04B07E22 P0000 FZRANO
PFEL 160256Z AUTO 17011KT 10SM -SN OVC012 00/M01 A2939 RMK AO2 UPB13E50SNE13B50 SLP952 P0000 60000 T00001011 51020 FZRANO
PFEL 160231Z AUTO 17013KT 10SM UP BKN012 OVC021 00/M01 A2938 RMK AO2 UPB13SNE13 P0000 FZRANO
PFEL 160156Z AUTO 17012KT 10SM -SN OVC025 00/M02 A2937 RMK AO2 UPB13E16B32E53SNE13B16E32B53 SLP947 P0000 T00001017 FZRANO
PFEL 160056Z AUTO 17014G19KT 9SM -SN BKN017 OVC023 00/M01 A2935 RMK AO2 SLP940 P0000 T00001011 FZRANO
PFEL 152356Z AUTO 17013KT 8SM -SN SCT017 OVC025 00/M02 A2933 RMK AO2 UPE21B44E50SNB2258E07B50 SLP931 P0000 60000 T00001017 10000 21006 51010 FZRANO
PFEL 152256Z AUTO 17011KT 10SM UP BKN019 BKN024 OVC032 00/M02 A2931 RMK AO2 UPE21B41 SLP926 P0000 T00001017 FZRANO
PFEL 152252Z AUTO 17012KT 10SM UP BKN019 BKN024 OVC032 00/M02 A2931 RMK AO2 UPE21B41 P0000 FZRANO
PFEL 152234Z AUTO 17015G19KT 10SM SCT019 OVC035 00/M02 A2930 RMK AO2 UPE21 P0000 FZRANO
PFEL 152156Z AUTO 17013KT 9SM UP OVC021 00/M01 A2930 RMK AO2 UPE10B55SNB10E55 SLP921 P0000 T00001011 FZRANO
PFEL 152103Z AUTO 17011KT 10SM UP FEW017 BKN028 OVC040 M01/M01 A2928 RMK AO2 P0000 FZRANO
PFEL 152056Z AUTO 17012KT 10SM UP FEW017 BKN033 OVC040 M01/M01 A2927 RMK AO2 UPB44SNE44 SLP914 P0000 60000 T10061011 51016 FZRANO
PFEL 151956Z AUTO 16010KT 6SM -SN BR BKN023 OVC035 M01/M02 A2925 RMK AO2 UPB02E36SNB36 SLP907 P0000 T10061017 FZRANO
PFEL 151953Z AUTO 16010KT 6SM -SN BR SCT021 BKN026 OVC038 M01/M02 A2925 RMK AO2 UPB02E36SNB36 P0000 FZRANO
PFEL 151856Z AUTO 16007KT 10SM BKN034 OVC044 00/M02 A2923 RMK AO2 SLP898 T00001022 FZRANO
PFEL 151756Z AUTO 16008KT 10SM FEW049 SCT065 OVC080 00/M02 A2920 RMK AO2 SLP888 T00001022 10011 20000 53016 FZRANO
PFEL 151656Z AUTO 16010KT 130V190 10SM BKN055 OVC075 00/M02 A2918 RMK AO2 SLP881 T00001022 FZRANO
PFEL 151556Z AUTO 16008KT 10SM SCT065 OVC080 00/M02 A2916 RMK AO2 SLP874 T00001022 FZRANO
PFEL 151456Z AUTO 15009G15KT 10SM FEW050 OVC075 00/M03 A2915 RMK AO2 SLP872 T00001028 51010 FZRANO
PFEL 151356Z AUTO VRB03KT 10SM OVC030 01/M03 A2914 RMK AO2 SLP870 T00061028 FZRANO
PFEL 151256Z AUTO 03006KT 10SM OVC030 01/M03 A2913 RMK AO2 SLP866 T00061028 FZRANO
PFEL 151156Z AUTO 02004KT 10SM BKN032 OVC090 01/M03 A2912 RMK AO2 SLP862 T00061033 10022 20006 53009 FZRANO
PFEL 151056Z AUTO 35007KT 10SM BKN034 OVC070 01/M03 A2911 RMK AO2 SLP858 T00111028 FZRANO